• Join FlightAware (Why Join?)
  • Login
  • US Flag 
08:32AM EDT


 

Airport Tracker/Info


-or-


 

Live Flight TrackerFlight Track Log ✈ UAL1519 ✈ 16-Mar-2014 ✈ KEWR - TIST / STT

Flight Track Log - Related Links

Times and Time Zones

All times are in EDT time to prevent confusion due to time zone crossing. See the UAL1519 flight status page for this flight to view local times or setup timezone preferences in your user account.

Time Position Orientation Groundspeed Altitude Reporting Facility
EDT Latitude Longitude Course Direction KTS MPH feet Rate Location/Type
09:45AM 40.7997 -74.1128 110° East 225 259 5,400  Level New York Center
09:46AM 40.3128 -74.1558 161° South  Level FlightAware Approximate
09:46AM 40.7794 -74.1692 245° Southwest 233 268 6,600  Level New York Center
09:47AM 40.1769 -74.1500 180° South  Level FlightAware Approximate
09:47AM 40.7333 -74.2000 207° Southwest 240 276 9,200  Level New York TRACON
09:48AM 40.0695 -74.1028 143° Southeast  Level FlightAware Approximate
09:49AM 40.0215 -73.9399 110° East  Level FlightAware Approximate
09:49AM 40.5556 -74.2728 197° South 278 320 15,400  Level New York Center
09:50AM 40.4731 -74.2386 163° South 312 359 18,300 2,820 Climbing New York Center
09:51AM 40.3822 -74.1442 142° Southeast 341 392 21,100 2,280 Climbing New York Center
09:52AM 40.3236 -74.0025 118° Southeast 374 430 22,900 1,560 Climbing New York Center
09:53AM 40.2608 -73.8553 119° Southeast 419 482 24,200 1,500 Climbing New York Center
09:54AM 40.1911 -73.7300 126° Southeast 451 519 25,900 1,680 Climbing New York Center
09:55AM 40.1028 -73.5958 131° Southeast 475 547 27,600 1,380 Climbing New York Center
09:56AM 40.0081 -73.4564 132° Southeast 496 571 28,700 660 Climbing New York Center
09:57AM 39.9072 -73.3039 131° Southeast 523 602 29,000 120 Climbing New York Center
09:58AM 39.8103 -73.1597 131° Southeast 531 611 29,000  Level New York Center
09:59AM 39.7131 -73.0161 131° Southeast 536 617 29,000  Level New York Center
10:00AM 39.6117 -72.8700 132° Southeast 531 611 29,100 540 Climbing New York Center
10:01AM 39.5100 -72.7189 131° Southeast 537 618 30,100 1,020 Climbing New York Center
10:02AM 39.4083 -72.5656 131° Southeast 548 631 31,200 1,440 Climbing New York Center
10:03AM 39.3022 -72.4153 132° Southeast 563 648 33,000 1,860 Climbing New York Center
10:04AM 39.1958 -72.2600 131° Southeast 568 654 34,900 1,860 Climbing New York Center
10:05AM 39.0933 -72.1133 132° Southeast 563 648 36,800 1,980 Climbing New York Center
10:06AM 38.9947 -71.9728 132° Southeast 548 631 38,900 1,080 Climbing New York Center
10:07AM 38.9003 -71.8375 132° Southeast 529 609 39,000  Climbing New York Center
10:08AM 38.8036 -71.6975 132° Southeast 524 603 39,000  Level New York Center
10:09AM 38.7025 -71.5606 133° Southeast 524 603 39,000  Level New York Center
10:10AM 38.6053 -71.4239 132° Southeast 524 603 39,000  Level New York Center
10:11AM 38.5058 -71.2822 132° Southeast 532 612 39,000  Level New York Center
10:12AM 38.3961 -71.1331 133° Southeast 521 600 39,000  Level New York Center
10:13AM 38.3192 -71.0242 132° Southeast 521 600 39,000  Level New York Center
10:14AM 38.2006 -70.8572 132° Southeast 526 605 39,000  Level New York Center
10:15AM 38.1028 -70.7250 133° Southeast 521 600 39,000  Level New York Center
10:16AM 38.0044 -70.5881 132° Southeast 521 600 39,000  Level New York Center
10:17AM 37.8792 -70.5067 153° Southeast 510 587 39,000  Level New York Center
10:32AM 36.1667 -69.4500 168° South 486 559 39,000  Level New York Oceanic (ODAPS)
10:33AM 36.0283 -69.4165 167° South  Level FlightAware Approximate
10:34AM 35.8975 -69.3807 167° South  Level FlightAware Approximate
10:35AM 35.7667 -69.3450 168° South  Level FlightAware Approximate
10:36AM 35.6359 -69.3094 168° South  Level FlightAware Approximate
10:37AM 35.5051 -69.2739 168° South  Level FlightAware Approximate
10:38AM 35.2408 -69.2025 168° South 486 559 39,000  Level FlightAware Transoceanic
10:39AM 35.1085 -69.1676 168° South 486 559 39,000  Level FlightAware Transoceanic
10:40AM 34.9762 -69.1328 168° South 486 559 39,000  Level FlightAware Transoceanic
10:41AM 34.8438 -69.0982 168° South 486 559 39,000  Level FlightAware Transoceanic
10:42AM 34.7115 -69.0636 168° South 486 559 39,000  Level FlightAware Transoceanic
10:43AM 34.5791 -69.0291 168° South 486 559 39,000  Level FlightAware Transoceanic
10:44AM 34.4468 -68.9948 168° South 486 559 39,000  Level FlightAware Transoceanic
10:45AM 34.3144 -68.9606 168° South 486 559 39,000  Level FlightAware Transoceanic
10:46AM 34.1820 -68.9265 168° South 486 559 39,000  Level FlightAware Transoceanic
10:47AM 34.0496 -68.8924 168° South 486 559 39,000  Level FlightAware Transoceanic
10:48AM 33.9172 -68.8585 168° South 486 559 39,000  Level FlightAware Transoceanic
10:49AM 33.7848 -68.8247 168° South 486 559 39,000  Level FlightAware Transoceanic
10:50AM 33.6524 -68.7910 168° South 486 559 39,000  Level FlightAware Transoceanic
10:51AM 33.5200 -68.7574 168° South 486 559 39,000  Level FlightAware Transoceanic
10:52AM 33.3876 -68.7239 168° South 486 559 39,000  Level FlightAware Transoceanic
10:53AM 33.2551 -68.6906 168° South 486 559 39,000  Level FlightAware Transoceanic
10:54AM 33.1227 -68.6573 168° South 486 559 39,000  Level FlightAware Transoceanic
10:55AM 32.9902 -68.6241 168° South 486 559 39,000  Level FlightAware Transoceanic
10:56AM 32.8577 -68.5910 168° South 486 559 39,000  Level FlightAware Transoceanic
10:57AM 32.7253 -68.5580 168° South 486 559 39,000  Level FlightAware Transoceanic
10:58AM 32.5928 -68.5251 168° South 486 559 39,000  Level FlightAware Transoceanic
10:59AM 32.4603 -68.4923 168° South 486 559 39,000  Level FlightAware Transoceanic
11:00AM 32.3278 -68.4596 168° South 486 559 39,000  Level FlightAware Transoceanic
11:01AM 32.1953 -68.4270 168° South 486 559 39,000  Level FlightAware Transoceanic
11:02AM 32.0627 -68.3945 168° South 486 559 39,000  Level FlightAware Transoceanic
11:03AM 31.9302 -68.3621 168° South 486 559 39,000  Level FlightAware Transoceanic
11:04AM 31.7977 -68.3298 168° South 486 559 39,000  Level FlightAware Transoceanic
11:05AM 31.6651 -68.2975 168° South 486 559 39,000  Level FlightAware Transoceanic
11:06AM 31.5326 -68.2654 168° South 486 559 39,000  Level FlightAware Transoceanic
11:07AM 31.4000 -68.2333 169° South 486 559 39,000  Level FlightAware Transoceanic
11:08AM 31.2768 -68.2040 169° South 486 559 39,000  Level FlightAware Transoceanic
11:09AM 31.1535 -68.1748 169° South 486 559 39,000  Level FlightAware Transoceanic
11:10AM 31.0303 -68.1457 169° South 486 559 39,000  Level FlightAware Transoceanic
11:11AM 30.9070 -68.1166 169° South 486 559 39,000  Level FlightAware Transoceanic
11:12AM 30.7838 -68.0876 169° South 486 559 39,000  Level FlightAware Transoceanic
11:13AM 30.6605 -68.0587 169° South 486 559 39,000  Level FlightAware Transoceanic
11:14AM 30.5373 -68.0298 169° South 486 559 39,000  Level FlightAware Transoceanic
11:15AM 30.4140 -68.0011 169° South 486 559 39,000  Level FlightAware Transoceanic
11:16AM 30.2907 -67.9724 169° South 486 559 39,000  Level FlightAware Transoceanic
11:17AM 30.1674 -67.9437 169° South 486 559 39,000  Level FlightAware Transoceanic
11:18AM 30.0441 -67.9152 169° South 486 559 39,000  Level FlightAware Transoceanic
11:19AM 29.9208 -67.8867 169° South 486 559 39,000  Level FlightAware Transoceanic
11:20AM 29.7975 -67.8583 169° South 486 559 39,000  Level FlightAware Transoceanic
11:21AM 29.6742 -67.8299 169° South 486 559 39,000  Level FlightAware Transoceanic
11:22AM 29.5509 -67.8017 169° South 486 559 39,000  Level FlightAware Transoceanic
11:23AM 29.4276 -67.7735 169° South 486 559 39,000  Level FlightAware Transoceanic
11:24AM 29.3042 -67.7453 169° South 486 559 39,000  Level FlightAware Transoceanic
11:25AM 29.1809 -67.7173 169° South 486 559 39,000  Level FlightAware Transoceanic
11:26AM 29.0576 -67.6893 169° South 486 559 39,000  Level FlightAware Transoceanic
11:27AM 28.9342 -67.6613 169° South 486 559 39,000  Level FlightAware Transoceanic
11:28AM 28.8109 -67.6335 169° South 486 559 39,000  Level FlightAware Transoceanic
11:29AM 28.6875 -67.6057 169° South 486 559 39,000  Level FlightAware Transoceanic
11:30AM 28.5641 -67.5779 169° South 486 559 39,000  Level FlightAware Transoceanic
11:31AM 28.4408 -67.5502 169° South 486 559 39,000  Level FlightAware Transoceanic
11:32AM 28.3174 -67.5226 169° South 486 559 39,000  Level FlightAware Transoceanic
11:33AM 28.1940 -67.4951 169° South 486 559 39,000  Level FlightAware Transoceanic
11:34AM 28.0706 -67.4676 169° South 486 559 39,000  Level FlightAware Transoceanic
11:35AM 27.9472 -67.4402 169° South 486 559 39,000  Level FlightAware Transoceanic
11:36AM 27.8238 -67.4128 169° South 486 559 39,000  Level FlightAware Transoceanic
11:37AM 27.7004 -67.3856 169° South 486 559 39,000  Level FlightAware Transoceanic
11:38AM 27.5770 -67.3583 169° South 486 559 39,000  Level FlightAware Transoceanic
11:39AM 27.4536 -67.3311 169° South 486 559 39,000  Level FlightAware Transoceanic
11:40AM 27.3302 -67.3040 169° South 486 559 39,000  Level FlightAware Transoceanic
11:41AM 27.2068 -67.2770 169° South 486 559 39,000  Level FlightAware Transoceanic
11:41AM 27.0833 -67.2500 158° South 518 596 39,000  Level New York Oceanic (ODAPS)
12:14PM 22.4333 -65.2833 166° South 590 679 39,000  Level San Juan Center
12:15PM 22.3701 -65.2436 159° South 518 596 39,000  Level FlightAware Transoceanic
12:15PM 22.3000 -65.2333 161° South 540 621 39,000  Level San Juan Center
12:16PM 22.2351 -65.1884 159° South 518 596 39,000  Level FlightAware Transoceanic
12:16PM 22.1667 -65.1667 155° Southeast 610 702 39,000  Level San Juan Center
12:17PM 22.1000 -65.1333 166° South 518 596 39,000  Level FlightAware Transoceanic
12:17PM 22.0333 -65.1167 161° South 570 656 39,000  Level San Juan Center
12:18PM 21.9908 -65.1035 166° South 518 596 39,000  Level FlightAware Transoceanic
12:18PM 21.9000 -65.0833 167° South 600 690 39,000  Level San Juan Center
12:19PM 21.8815 -65.0738 166° South 518 596 39,000  Level FlightAware Transoceanic
12:19PM 21.7667 -65.0667 173° South 480 552 39,000  Level San Juan Center
12:20PM 21.7723 -65.0440 166° South 518 596 39,000  Level FlightAware Transoceanic
12:20PM 21.6333 -65.0167 161° South 590 679 39,000  Level San Juan Center
12:21PM 21.5000 -64.9667 161° South 540 621 39,000  Level San Juan Center
12:22PM 21.3667 -64.9667 180° South 540 621 39,000  Level San Juan Center
12:23PM 21.2333 -64.9833 187° South 460 529 39,000  Level San Juan Center
12:24PM 21.1000 -65.0000 187° South 470 541 39,000  Level San Juan Center
12:25PM 20.9833 -65.0167 188° South 460 529 39,000 -120 Level San Juan Center
12:26PM 20.8500 -65.0500 193° South 440 506 38,800 -600 Descending San Juan Center
12:27PM 20.7167 -65.0667 187° South 460 529 37,800 -1,020 Descending San Juan Center
12:28PM 20.5833 -65.0833 187° South 470 541 36,800 -960 Descending San Juan Center
12:29PM 20.4667 -65.1000 188° South 470 541 35,900 -900 Descending San Juan Center
12:30PM 20.3333 -65.1167 187° South 460 529 35,000 -900 Descending San Juan Center
12:31PM 20.2000 -65.1333 187° South 470 541 34,100 -1,020 Descending San Juan Center
12:32PM 20.0667 -65.1500 187° South 470 541 33,000 -600 Descending San Juan Center
12:33PM 19.9500 -65.1667 188° South 470 541 33,000 -60 Level San Juan Center
12:35PM 19.8167 -65.2000 193° South 470 541 32,900 -1,200 Descending San Juan Center
12:36PM 19.6833 -65.2167 187° South 470 541 30,600 -2,580 Descending San Juan Center
12:37PM 19.5500 -65.2333 187° South 460 529 27,800 -2,640 Descending San Juan Center
12:38PM 19.4333 -65.2500 188° South 450 518 25,300 -2,460 Descending San Juan Center
12:39PM 19.3000 -65.2667 187° South 440 506 22,900 -2,400 Descending San Juan Center
12:40PM 19.1833 -65.2833 188° South 420 483 20,500 -2,400 Descending San Juan Center
12:41PM 19.0667 -65.3000 188° South 400 460 18,100 -2,160 Descending San Juan Center
12:42PM 18.9500 -65.3000 180° South 390 449 16,200 -2,340 Descending San Juan Center
12:43PM 18.8500 -65.2833 171° South 370 426 13,400 -2,880 Descending San Juan Center
12:44PM 18.7500 -65.2667 171° South 360 414 10,500 -2,340 Descending San Juan Center
12:45PM 18.6667 -65.2500 169° South 350 403 8,800 -1,740 Descending San Juan Center
12:46PM 18.5833 -65.2333 169° South 290 334 7,000 -1,800 Descending San Juan Center
12:47PM 18.5000 -65.2167 169° South 280 322 5,200 -1,680 Descending San Juan Center
12:48PM 18.4333 -65.2000 167° South 270 311 3,700 -1,200 Descending San Juan Center
12:49PM 18.3667 -65.1833 167° South 260 299 2,800 -480 Descending San Juan Center
12:50PM 18.3000 -65.1667 167° South 230 265 2,800 -180 Level San Juan Center
12:51PM 18.3000 -65.1167 90° East 210 242 2,500 -420 Descending San Juan Center
12:52PM 18.3333 -65.0833 44° Northeast 170 196 2,000 -660 Descending San Juan Center
12:53PM 18.3167 -65.0333 109° East 140 161 1,200 -780 Descending San Juan Center
12:54PM 18.3333 -65.0000 62° Northeast 150 173 500 -720 Descending San Juan Center